sensor_id;sensor_type;location;lat;lon;timestamp;pressure;altitude;pressure_sealevel;temperature
19666;BMP180;9980;51.020;7.772;2022-07-17T00:01:23;98577.00;;;15.80
19666;BMP180;9980;51.020;7.772;2022-07-17T00:03:50;98578.00;;;15.80
19666;BMP180;9980;51.020;7.772;2022-07-17T00:06:17;98563.00;;;15.70
19666;BMP180;9980;51.020;7.772;2022-07-17T00:08:45;98580.00;;;15.70
19666;BMP180;9980;51.020;7.772;2022-07-17T00:11:12;98560.00;;;15.60
19666;BMP180;9980;51.020;7.772;2022-07-17T00:13:39;98554.00;;;15.60
19666;BMP180;9980;51.020;7.772;2022-07-17T00:16:07;98543.00;;;15.50
19666;BMP180;9980;51.020;7.772;2022-07-17T00:18:35;98550.00;;;15.50
19666;BMP180;9980;51.020;7.772;2022-07-17T00:21:03;98576.00;;;15.40
19666;BMP180;9980;51.020;7.772;2022-07-17T00:23:32;98557.00;;;15.40
19666;BMP180;9980;51.020;7.772;2022-07-17T00:25:59;98561.00;;;15.30
19666;BMP180;9980;51.020;7.772;2022-07-17T00:28:26;98543.00;;;15.30
19666;BMP180;9980;51.020;7.772;2022-07-17T00:30:53;98557.00;;;15.20
19666;BMP180;9980;51.020;7.772;2022-07-17T00:33:20;98556.00;;;15.20
19666;BMP180;9980;51.020;7.772;2022-07-17T00:35:47;98559.00;;;15.10
19666;BMP180;9980;51.020;7.772;2022-07-17T00:38:14;98542.00;;;15.10
19666;BMP180;9980;51.020;7.772;2022-07-17T00:40:44;98574.00;;;15.00
19666;BMP180;9980;51.020;7.772;2022-07-17T00:43:12;98566.00;;;15.00
19666;BMP180;9980;51.020;7.772;2022-07-17T00:45:39;98574.00;;;15.00
19666;BMP180;9980;51.020;7.772;2022-07-17T00:48:12;98577.00;;;14.90
19666;BMP180;9980;51.020;7.772;2022-07-17T00:50:41;98568.00;;;14.80
19666;BMP180;9980;51.020;7.772;2022-07-17T00:53:09;98561.00;;;14.80
19666;BMP180;9980;51.020;7.772;2022-07-17T00:55:39;98561.00;;;14.80
19666;BMP180;9980;51.020;7.772;2022-07-17T00:58:16;98566.00;;;14.70
19666;BMP180;9980;51.020;7.772;2022-07-17T01:00:43;98555.00;;;14.70
19666;BMP180;9980;51.020;7.772;2022-07-17T01:03:10;98570.00;;;14.70
19666;BMP180;9980;51.020;7.772;2022-07-17T01:05:37;98551.00;;;14.60
19666;BMP180;9980;51.020;7.772;2022-07-17T01:08:05;98553.00;;;14.60
19666;BMP180;9980;51.020;7.772;2022-07-17T01:10:32;98553.00;;;14.60
19666;BMP180;9980;51.020;7.772;2022-07-17T01:12:59;98555.00;;;14.50
19666;BMP180;9980;51.020;7.772;2022-07-17T01:15:26;98555.00;;;14.50
19666;BMP180;9980;51.020;7.772;2022-07-17T01:17:54;98554.00;;;14.40
19666;BMP180;9980;51.020;7.772;2022-07-17T01:20:21;98559.00;;;14.40
19666;BMP180;9980;51.020;7.772;2022-07-17T01:22:50;98567.00;;;14.30
19666;BMP180;9980;51.020;7.772;2022-07-17T01:25:21;98567.00;;;14.30
19666;BMP180;9980;51.020;7.772;2022-07-17T01:27:49;98567.00;;;14.30
19666;BMP180;9980;51.020;7.772;2022-07-17T01:30:16;98570.00;;;14.20
19666;BMP180;9980;51.020;7.772;2022-07-17T01:32:45;98563.00;;;14.20
19666;BMP180;9980;51.020;7.772;2022-07-17T01:35:14;98564.00;;;14.10
19666;BMP180;9980;51.020;7.772;2022-07-17T01:37:43;98575.00;;;14.10
19666;BMP180;9980;51.020;7.772;2022-07-17T01:40:13;98559.00;;;14.00
19666;BMP180;9980;51.020;7.772;2022-07-17T01:42:43;98567.00;;;14.00
19666;BMP180;9980;51.020;7.772;2022-07-17T01:45:14;98564.00;;;14.00
19666;BMP180;9980;51.020;7.772;2022-07-17T01:47:42;98573.00;;;13.90
19666;BMP180;9980;51.020;7.772;2022-07-17T01:50:11;98576.00;;;13.90
19666;BMP180;9980;51.020;7.772;2022-07-17T01:52:41;98578.00;;;13.90
19666;BMP180;9980;51.020;7.772;2022-07-17T01:55:12;98589.00;;;13.80
19666;BMP180;9980;51.020;7.772;2022-07-17T01:57:41;98584.00;;;13.80
19666;BMP180;9980;51.020;7.772;2022-07-17T02:00:14;98570.00;;;13.70
19666;BMP180;9980;51.020;7.772;2022-07-17T02:02:43;98572.00;;;13.70
19666;BMP180;9980;51.020;7.772;2022-07-17T02:05:10;98563.00;;;13.70
19666;BMP180;9980;51.020;7.772;2022-07-17T02:07:38;98574.00;;;13.70
19666;BMP180;9980;51.020;7.772;2022-07-17T02:10:09;98587.00;;;13.60
19666;BMP180;9980;51.020;7.772;2022-07-17T02:12:38;98555.00;;;13.60
19666;BMP180;9980;51.020;7.772;2022-07-17T02:15:06;98565.00;;;13.50
19666;BMP180;9980;51.020;7.772;2022-07-17T02:17:38;98573.00;;;13.50
19666;BMP180;9980;51.020;7.772;2022-07-17T02:20:07;98582.00;;;13.50
19666;BMP180;9980;51.020;7.772;2022-07-17T02:22:36;98588.00;;;13.40
19666;BMP180;9980;51.020;7.772;2022-07-17T02:25:06;98577.00;;;13.40
19666;BMP180;9980;51.020;7.772;2022-07-17T02:27:35;98569.00;;;13.30
19666;BMP180;9980;51.020;7.772;2022-07-17T02:30:05;98572.00;;;13.30
19666;BMP180;9980;51.020;7.772;2022-07-17T02:32:33;98583.00;;;13.30
19666;BMP180;9980;51.020;7.772;2022-07-17T02:35:00;98566.00;;;13.20
19666;BMP180;9980;51.020;7.772;2022-07-17T02:37:27;98572.00;;;13.20
19666;BMP180;9980;51.020;7.772;2022-07-17T02:39:54;98575.00;;;13.20
19666;BMP180;9980;51.020;7.772;2022-07-17T02:42:27;98548.00;;;13.10
19666;BMP180;9980;51.020;7.772;2022-07-17T02:44:55;98564.00;;;13.10
19666;BMP180;9980;51.020;7.772;2022-07-17T02:47:31;98567.00;;;13.00
19666;BMP180;9980;51.020;7.772;2022-07-17T02:49:58;98560.00;;;13.00
19666;BMP180;9980;51.020;7.772;2022-07-17T02:52:28;98566.00;;;13.00
19666;BMP180;9980;51.020;7.772;2022-07-17T02:54:55;98565.00;;;13.00
19666;BMP180;9980;51.020;7.772;2022-07-17T02:57:22;98564.00;;;12.90
19666;BMP180;9980;51.020;7.772;2022-07-17T02:59:49;98557.00;;;12.90
19666;BMP180;9980;51.020;7.772;2022-07-17T03:02:16;98568.00;;;12.90
19666;BMP180;9980;51.020;7.772;2022-07-17T03:04:43;98557.00;;;12.90
19666;BMP180;9980;51.020;7.772;2022-07-17T03:07:10;98554.00;;;12.80
19666;BMP180;9980;51.020;7.772;2022-07-17T03:09:37;98555.00;;;12.80
19666;BMP180;9980;51.020;7.772;2022-07-17T03:12:04;98555.00;;;12.70
19666;BMP180;9980;51.020;7.772;2022-07-17T03:14:31;98560.00;;;12.70
19666;BMP180;9980;51.020;7.772;2022-07-17T03:16:58;98578.00;;;12.70
19666;BMP180;9980;51.020;7.772;2022-07-17T03:19:25;98575.00;;;12.60
19666;BMP180;9980;51.020;7.772;2022-07-17T03:21:52;98584.00;;;12.60
19666;BMP180;9980;51.020;7.772;2022-07-17T03:24:19;98576.00;;;12.60
19666;BMP180;9980;51.020;7.772;2022-07-17T03:26:46;98589.00;;;12.60
19666;BMP180;9980;51.020;7.772;2022-07-17T03:29:13;98584.00;;;12.50
19666;BMP180;9980;51.020;7.772;2022-07-17T03:31:45;98588.00;;;12.50
19666;BMP180;9980;51.020;7.772;2022-07-17T03:34:13;98578.00;;;12.50
19666;BMP180;9980;51.020;7.772;2022-07-17T03:36:40;98572.00;;;12.50
19666;BMP180;9980;51.020;7.772;2022-07-17T03:39:08;98585.00;;;12.50
19666;BMP180;9980;51.020;7.772;2022-07-17T03:41:35;98582.00;;;12.40
19666;BMP180;9980;51.020;7.772;2022-07-17T03:44:02;98582.00;;;12.40
19666;BMP180;9980;51.020;7.772;2022-07-17T03:46:29;98600.00;;;12.40
19666;BMP180;9980;51.020;7.772;2022-07-17T03:48:56;98595.00;;;12.40
19666;BMP180;9980;51.020;7.772;2022-07-17T03:51:24;98593.00;;;12.40
19666;BMP180;9980;51.020;7.772;2022-07-17T03:53:50;98590.00;;;12.30
19666;BMP180;9980;51.020;7.772;2022-07-17T03:56:20;98609.00;;;12.30
19666;BMP180;9980;51.020;7.772;2022-07-17T03:58:47;98586.00;;;12.30
19666;BMP180;9980;51.020;7.772;2022-07-17T04:01:14;98594.00;;;12.30
19666;BMP180;9980;51.020;7.772;2022-07-17T04:03:41;98607.00;;;12.30
19666;BMP180;9980;51.020;7.772;2022-07-17T04:06:08;98596.00;;;12.30
19666;BMP180;9980;51.020;7.772;2022-07-17T04:08:35;98601.00;;;12.30
19666;BMP180;9980;51.020;7.772;2022-07-17T04:11:03;98595.00;;;12.30
19666;BMP180;9980;51.020;7.772;2022-07-17T04:13:37;98619.00;;;12.20
19666;BMP180;9980;51.020;7.772;2022-07-17T04:16:05;98625.00;;;12.20
19666;BMP180;9980;51.020;7.772;2022-07-17T04:18:34;98612.00;;;12.20
19666;BMP180;9980;51.020;7.772;2022-07-17T04:21:05;98622.00;;;12.20
19666;BMP180;9980;51.020;7.772;2022-07-17T04:23:37;98626.00;;;12.20
19666;BMP180;9980;51.020;7.772;2022-07-17T04:26:05;98612.00;;;12.20
19666;BMP180;9980;51.020;7.772;2022-07-17T04:28:39;98619.00;;;12.20
19666;BMP180;9980;51.020;7.772;2022-07-17T04:31:06;98626.00;;;12.30
19666;BMP180;9980;51.020;7.772;2022-07-17T04:33:37;98618.00;;;12.20
19666;BMP180;9980;51.020;7.772;2022-07-17T04:36:04;98605.00;;;12.30
19666;BMP180;9980;51.020;7.772;2022-07-17T04:38:31;98612.00;;;12.30
19666;BMP180;9980;51.020;7.772;2022-07-17T04:40:58;98615.00;;;12.30
19666;BMP180;9980;51.020;7.772;2022-07-17T04:43:25;98612.00;;;12.30
19666;BMP180;9980;51.020;7.772;2022-07-17T04:45:52;98612.00;;;12.30
19666;BMP180;9980;51.020;7.772;2022-07-17T04:48:19;98607.00;;;12.40
19666;BMP180;9980;51.020;7.772;2022-07-17T04:50:46;98610.00;;;12.40
19666;BMP180;9980;51.020;7.772;2022-07-17T04:53:13;98605.00;;;12.50
19666;BMP180;9980;51.020;7.772;2022-07-17T04:55:47;98607.00;;;12.50
19666;BMP180;9980;51.020;7.772;2022-07-17T04:58:14;98599.00;;;12.70
19666;BMP180;9980;51.020;7.772;2022-07-17T05:00:41;98601.00;;;12.80
19666;BMP180;9980;51.020;7.772;2022-07-17T05:03:08;98617.00;;;12.90
19666;BMP180;9980;51.020;7.772;2022-07-17T05:05:35;98605.00;;;13.10
19666;BMP180;9980;51.020;7.772;2022-07-17T05:08:02;98599.00;;;13.20
19666;BMP180;9980;51.020;7.772;2022-07-17T05:10:30;98621.00;;;13.40
19666;BMP180;9980;51.020;7.772;2022-07-17T05:12:56;98604.00;;;13.50
19666;BMP180;9980;51.020;7.772;2022-07-17T05:15:24;98617.00;;;13.60
19666;BMP180;9980;51.020;7.772;2022-07-17T05:17:51;98615.00;;;13.80
19666;BMP180;9980;51.020;7.772;2022-07-17T05:20:18;98614.00;;;13.90
19666;BMP180;9980;51.020;7.772;2022-07-17T05:22:44;98622.00;;;14.00
19666;BMP180;9980;51.020;7.772;2022-07-17T05:25:11;98617.00;;;14.10
19666;BMP180;9980;51.020;7.772;2022-07-17T05:27:38;98622.00;;;14.20
19666;BMP180;9980;51.020;7.772;2022-07-17T05:30:06;98609.00;;;14.30
19666;BMP180;9980;51.020;7.772;2022-07-17T05:32:33;98613.00;;;14.40
19666;BMP180;9980;51.020;7.772;2022-07-17T05:35:00;98614.00;;;14.60
19666;BMP180;9980;51.020;7.772;2022-07-17T05:37:27;98601.00;;;14.70
19666;BMP180;9980;51.020;7.772;2022-07-17T05:39:54;98603.00;;;14.80
19666;BMP180;9980;51.020;7.772;2022-07-17T05:42:20;98598.00;;;14.90
19666;BMP180;9980;51.020;7.772;2022-07-17T05:44:48;98606.00;;;15.00
19666;BMP180;9980;51.020;7.772;2022-07-17T05:47:14;98612.00;;;15.10
19666;BMP180;9980;51.020;7.772;2022-07-17T05:49:42;98610.00;;;15.20
19666;BMP180;9980;51.020;7.772;2022-07-17T05:52:10;98616.00;;;15.30
19666;BMP180;9980;51.020;7.772;2022-07-17T05:54:37;98623.00;;;15.40
19666;BMP180;9980;51.020;7.772;2022-07-17T05:57:03;98629.00;;;15.50
19666;BMP180;9980;51.020;7.772;2022-07-17T05:59:37;98631.00;;;15.60
19666;BMP180;9980;51.020;7.772;2022-07-17T06:02:04;98637.00;;;15.70
19666;BMP180;9980;51.020;7.772;2022-07-17T06:04:32;98637.00;;;15.80
19666;BMP180;9980;51.020;7.772;2022-07-17T06:06:59;98638.00;;;15.90
19666;BMP180;9980;51.020;7.772;2022-07-17T06:09:26;98646.00;;;16.00
19666;BMP180;9980;51.020;7.772;2022-07-17T06:11:53;98641.00;;;16.20
19666;BMP180;9980;51.020;7.772;2022-07-17T06:14:20;98638.00;;;16.30
19666;BMP180;9980;51.020;7.772;2022-07-17T06:16:47;98641.00;;;16.40
19666;BMP180;9980;51.020;7.772;2022-07-17T06:19:14;98641.00;;;16.50
19666;BMP180;9980;51.020;7.772;2022-07-17T06:21:41;98625.00;;;16.70
19666;BMP180;9980;51.020;7.772;2022-07-17T06:24:08;98627.00;;;16.80
19666;BMP180;9980;51.020;7.772;2022-07-17T06:26:35;98631.00;;;16.90
19666;BMP180;9980;51.020;7.772;2022-07-17T06:29:02;98619.00;;;17.00
19666;BMP180;9980;51.020;7.772;2022-07-17T06:31:29;98616.00;;;17.10
19666;BMP180;9980;51.020;7.772;2022-07-17T06:33:57;98641.00;;;17.30
19666;BMP180;9980;51.020;7.772;2022-07-17T06:36:24;98625.00;;;17.40
19666;BMP180;9980;51.020;7.772;2022-07-17T06:38:51;98612.00;;;17.50
19666;BMP180;9980;51.020;7.772;2022-07-17T06:41:18;98619.00;;;17.70
19666;BMP180;9980;51.020;7.772;2022-07-17T06:43:45;98608.00;;;17.80
19666;BMP180;9980;51.020;7.772;2022-07-17T06:46:12;98627.00;;;18.00
19666;BMP180;9980;51.020;7.772;2022-07-17T06:48:39;98626.00;;;18.10
19666;BMP180;9980;51.020;7.772;2022-07-17T06:51:06;98609.00;;;18.20
19666;BMP180;9980;51.020;7.772;2022-07-17T06:53:33;98603.00;;;18.40
19666;BMP180;9980;51.020;7.772;2022-07-17T06:56:00;98595.00;;;18.50
19666;BMP180;9980;51.020;7.772;2022-07-17T06:58:27;98603.00;;;18.70
19666;BMP180;9980;51.020;7.772;2022-07-17T07:00:54;98599.00;;;18.90
19666;BMP180;9980;51.020;7.772;2022-07-17T07:03:21;98606.00;;;19.00
19666;BMP180;9980;51.020;7.772;2022-07-17T07:05:48;98595.00;;;19.10
19666;BMP180;9980;51.020;7.772;2022-07-17T07:08:15;98605.00;;;19.30
19666;BMP180;9980;51.020;7.772;2022-07-17T07:10:42;98607.00;;;19.50
19666;BMP180;9980;51.020;7.772;2022-07-17T07:13:10;98611.00;;;19.60
19666;BMP180;9980;51.020;7.772;2022-07-17T07:15:37;98611.00;;;19.80
19666;BMP180;9980;51.020;7.772;2022-07-17T07:18:04;98606.00;;;19.90
19666;BMP180;9980;51.020;7.772;2022-07-17T07:20:31;98618.00;;;20.10
19666;BMP180;9980;51.020;7.772;2022-07-17T07:22:58;98622.00;;;20.20
19666;BMP180;9980;51.020;7.772;2022-07-17T07:25:33;98621.00;;;20.40
19666;BMP180;9980;51.020;7.772;2022-07-17T07:28:03;98627.00;;;20.60
19666;BMP180;9980;51.020;7.772;2022-07-17T07:30:30;98613.00;;;20.80
19666;BMP180;9980;51.020;7.772;2022-07-17T07:32:57;98622.00;;;20.90
19666;BMP180;9980;51.020;7.772;2022-07-17T07:35:24;98609.00;;;21.10
19666;BMP180;9980;51.020;7.772;2022-07-17T07:37:51;98611.00;;;21.20
19666;BMP180;9980;51.020;7.772;2022-07-17T07:40:18;98600.00;;;21.30
19666;BMP180;9980;51.020;7.772;2022-07-17T07:42:45;98595.00;;;21.50
19666;BMP180;9980;51.020;7.772;2022-07-17T07:45:12;98603.00;;;21.60
19666;BMP180;9980;51.020;7.772;2022-07-17T07:47:46;98605.00;;;21.70
19666;BMP180;9980;51.020;7.772;2022-07-17T07:50:14;98597.00;;;21.90
19666;BMP180;9980;51.020;7.772;2022-07-17T07:52:42;98593.00;;;22.10
19666;BMP180;9980;51.020;7.772;2022-07-17T07:55:12;98616.00;;;22.20
19666;BMP180;9980;51.020;7.772;2022-07-17T07:57:48;98608.00;;;22.30
19666;BMP180;9980;51.020;7.772;2022-07-17T08:00:17;98606.00;;;22.50
19666;BMP180;9980;51.020;7.772;2022-07-17T08:02:44;98592.00;;;22.60
19666;BMP180;9980;51.020;7.772;2022-07-17T08:05:11;98606.00;;;22.80
19666;BMP180;9980;51.020;7.772;2022-07-17T08:07:38;98606.00;;;22.90
19666;BMP180;9980;51.020;7.772;2022-07-17T08:10:07;98608.00;;;23.00
19666;BMP180;9980;51.020;7.772;2022-07-17T08:12:34;98599.00;;;23.10
19666;BMP180;9980;51.020;7.772;2022-07-17T08:15:14;98591.00;;;23.20
19666;BMP180;9980;51.020;7.772;2022-07-17T08:17:41;98579.00;;;23.30
19666;BMP180;9980;51.020;7.772;2022-07-17T08:20:09;98587.00;;;23.50
19666;BMP180;9980;51.020;7.772;2022-07-17T08:22:44;98582.00;;;23.60
19666;BMP180;9980;51.020;7.772;2022-07-17T08:25:31;98572.00;;;23.70
19666;BMP180;9980;51.020;7.772;2022-07-17T08:27:59;98578.00;;;23.80
19666;BMP180;9980;51.020;7.772;2022-07-17T08:30:27;98583.00;;;23.90
19666;BMP180;9980;51.020;7.772;2022-07-17T08:32:54;98589.00;;;24.10
19666;BMP180;9980;51.020;7.772;2022-07-17T08:35:21;98592.00;;;24.20
19666;BMP180;9980;51.020;7.772;2022-07-17T08:37:52;98594.00;;;24.30
19666;BMP180;9980;51.020;7.772;2022-07-17T08:40:25;98591.00;;;24.40
19666;BMP180;9980;51.020;7.772;2022-07-17T08:42:54;98588.00;;;24.50
19666;BMP180;9980;51.020;7.772;2022-07-17T08:45:22;98597.00;;;24.60
19666;BMP180;9980;51.020;7.772;2022-07-17T08:47:55;98599.00;;;24.70
19666;BMP180;9980;51.020;7.772;2022-07-17T08:50:33;98605.00;;;24.80
19666;BMP180;9980;51.020;7.772;2022-07-17T08:53:01;98605.00;;;25.00
19666;BMP180;9980;51.020;7.772;2022-07-17T08:55:29;98604.00;;;25.10
19666;BMP180;9980;51.020;7.772;2022-07-17T08:57:57;98616.00;;;25.20
19666;BMP180;9980;51.020;7.772;2022-07-17T09:00:25;98603.00;;;25.30
19666;BMP180;9980;51.020;7.772;2022-07-17T09:03:07;98616.00;;;25.40
19666;BMP180;9980;51.020;7.772;2022-07-17T09:05:42;98613.00;;;25.60
19666;BMP180;9980;51.020;7.772;2022-07-17T09:08:20;98612.00;;;25.70
19666;BMP180;9980;51.020;7.772;2022-07-17T09:10:50;98604.00;;;25.80
19666;BMP180;9980;51.020;7.772;2022-07-17T09:13:24;98618.00;;;26.00
19666;BMP180;9980;51.020;7.772;2022-07-17T09:15:55;98623.00;;;26.10
19666;BMP180;9980;51.020;7.772;2022-07-17T09:18:24;98631.00;;;26.20
19666;BMP180;9980;51.020;7.772;2022-07-17T09:20:55;98618.00;;;26.20
19666;BMP180;9980;51.020;7.772;2022-07-17T09:23:26;98614.00;;;26.30
19666;BMP180;9980;51.020;7.772;2022-07-17T09:25:56;98604.00;;;26.40
19666;BMP180;9980;51.020;7.772;2022-07-17T09:28:24;98617.00;;;26.50
19666;BMP180;9980;51.020;7.772;2022-07-17T09:30:54;98620.00;;;26.50
19666;BMP180;9980;51.020;7.772;2022-07-17T09:33:27;98621.00;;;26.60
19666;BMP180;9980;51.020;7.772;2022-07-17T09:36:10;98616.00;;;26.70
19666;BMP180;9980;51.020;7.772;2022-07-17T09:38:42;98620.00;;;26.80
19666;BMP180;9980;51.020;7.772;2022-07-17T09:41:17;98614.00;;;26.90
19666;BMP180;9980;51.020;7.772;2022-07-17T09:43:52;98608.00;;;26.90
19666;BMP180;9980;51.020;7.772;2022-07-17T09:46:34;98611.00;;;27.00
19666;BMP180;9980;51.020;7.772;2022-07-17T09:49:06;98614.00;;;27.20
19666;BMP180;9980;51.020;7.772;2022-07-17T09:51:40;98618.00;;;27.30
19666;BMP180;9980;51.020;7.772;2022-07-17T09:54:37;98593.00;;;27.40
19666;BMP180;9980;51.020;7.772;2022-07-17T09:57:30;98609.00;;;27.50
19666;BMP180;9980;51.020;7.772;2022-07-17T10:00:09;98577.00;;;27.60
19666;BMP180;9980;51.020;7.772;2022-07-17T10:02:44;98600.00;;;27.70
19666;BMP180;9980;51.020;7.772;2022-07-17T10:05:14;98610.00;;;27.80
19666;BMP180;9980;51.020;7.772;2022-07-17T10:07:43;98603.00;;;27.90
19666;BMP180;9980;51.020;7.772;2022-07-17T10:10:17;98604.00;;;28.00
19666;BMP180;9980;51.020;7.772;2022-07-17T10:12:49;98610.00;;;28.10
19666;BMP180;9980;51.020;7.772;2022-07-17T10:15:17;98597.00;;;28.20
19666;BMP180;9980;51.020;7.772;2022-07-17T10:17:44;98600.00;;;28.30
19666;BMP180;9980;51.020;7.772;2022-07-17T10:20:23;98607.00;;;28.30
19666;BMP180;9980;51.020;7.772;2022-07-17T10:22:51;98592.00;;;28.40
19666;BMP180;9980;51.020;7.772;2022-07-17T10:25:19;98614.00;;;28.50
19666;BMP180;9980;51.020;7.772;2022-07-17T10:27:53;98607.00;;;28.60
19666;BMP180;9980;51.020;7.772;2022-07-17T10:30:27;98607.00;;;28.60
19666;BMP180;9980;51.020;7.772;2022-07-17T10:33:00;98615.00;;;28.70
19666;BMP180;9980;51.020;7.772;2022-07-17T10:35:28;98600.00;;;28.80
19666;BMP180;9980;51.020;7.772;2022-07-17T10:38:11;98606.00;;;28.80
19666;BMP180;9980;51.020;7.772;2022-07-17T10:40:39;98611.00;;;28.90
19666;BMP180;9980;51.020;7.772;2022-07-17T10:43:09;98612.00;;;29.00
19666;BMP180;9980;51.020;7.772;2022-07-17T10:45:42;98602.00;;;29.00
19666;BMP180;9980;51.020;7.772;2022-07-17T10:48:18;98601.00;;;29.10
19666;BMP180;9980;51.020;7.772;2022-07-17T10:50:53;98600.00;;;29.20
19666;BMP180;9980;51.020;7.772;2022-07-17T10:53:30;98609.00;;;29.20
19666;BMP180;9980;51.020;7.772;2022-07-17T10:56:07;98603.00;;;29.30
19666;BMP180;9980;51.020;7.772;2022-07-17T10:58:41;98596.00;;;29.40
19666;BMP180;9980;51.020;7.772;2022-07-17T11:01:13;98608.00;;;29.50
19666;BMP180;9980;51.020;7.772;2022-07-17T11:03:53;98601.00;;;29.60
19666;BMP180;9980;51.020;7.772;2022-07-17T11:06:28;98595.00;;;29.70
19666;BMP180;9980;51.020;7.772;2022-07-17T11:09:00;98612.00;;;29.70
19666;BMP180;9980;51.020;7.772;2022-07-17T11:11:43;98595.00;;;29.80
19666;BMP180;9980;51.020;7.772;2022-07-17T11:14:21;98599.00;;;29.80
19666;BMP180;9980;51.020;7.772;2022-07-17T11:16:53;98596.00;;;29.90
19666;BMP180;9980;51.020;7.772;2022-07-17T11:19:30;98600.00;;;30.00
19666;BMP180;9980;51.020;7.772;2022-07-17T11:22:01;98590.00;;;30.10
19666;BMP180;9980;51.020;7.772;2022-07-17T11:24:45;98598.00;;;30.10
19666;BMP180;9980;51.020;7.772;2022-07-17T11:27:24;98578.00;;;30.20
19666;BMP180;9980;51.020;7.772;2022-07-17T11:29:54;98587.00;;;30.30
19666;BMP180;9980;51.020;7.772;2022-07-17T11:32:21;98596.00;;;30.30
19666;BMP180;9980;51.020;7.772;2022-07-17T11:34:49;98580.00;;;30.40
19666;BMP180;9980;51.020;7.772;2022-07-17T11:37:16;98594.00;;;30.50
19666;BMP180;9980;51.020;7.772;2022-07-17T11:39:49;98586.00;;;30.50
19666;BMP180;9980;51.020;7.772;2022-07-17T11:42:21;98586.00;;;30.60
19666;BMP180;9980;51.020;7.772;2022-07-17T11:44:56;98587.00;;;30.70
19666;BMP180;9980;51.020;7.772;2022-07-17T11:47:27;98591.00;;;30.80
19666;BMP180;9980;51.020;7.772;2022-07-17T11:50:12;98586.00;;;30.80
19666;BMP180;9980;51.020;7.772;2022-07-17T11:52:46;98578.00;;;30.90
19666;BMP180;9980;51.020;7.772;2022-07-17T11:55:16;98580.00;;;31.00
19666;BMP180;9980;51.020;7.772;2022-07-17T11:57:49;98579.00;;;31.00
19666;BMP180;9980;51.020;7.772;2022-07-17T12:00:20;98573.00;;;31.10
19666;BMP180;9980;51.020;7.772;2022-07-17T12:03:02;98562.00;;;31.10
19666;BMP180;9980;51.020;7.772;2022-07-17T12:05:33;98558.00;;;31.20
19666;BMP180;9980;51.020;7.772;2022-07-17T12:08:02;98561.00;;;31.30
19666;BMP180;9980;51.020;7.772;2022-07-17T12:10:30;98570.00;;;31.30
19666;BMP180;9980;51.020;7.772;2022-07-17T12:13:06;98559.00;;;31.40
19666;BMP180;9980;51.020;7.772;2022-07-17T12:15:51;98562.00;;;31.40
19666;BMP180;9980;51.020;7.772;2022-07-17T12:18:25;98567.00;;;31.50
19666;BMP180;9980;51.020;7.772;2022-07-17T12:20:55;98558.00;;;31.50
19666;BMP180;9980;51.020;7.772;2022-07-17T12:23:41;98556.00;;;31.50
19666;BMP180;9980;51.020;7.772;2022-07-17T12:26:17;98556.00;;;31.60
19666;BMP180;9980;51.020;7.772;2022-07-17T12:28:46;98559.00;;;31.70
19666;BMP180;9980;51.020;7.772;2022-07-17T12:31:14;98554.00;;;31.70
19666;BMP180;9980;51.020;7.772;2022-07-17T12:33:43;98563.00;;;31.80
19666;BMP180;9980;51.020;7.772;2022-07-17T12:36:10;98559.00;;;31.80
19666;BMP180;9980;51.020;7.772;2022-07-17T12:38:38;98548.00;;;31.90
19666;BMP180;9980;51.020;7.772;2022-07-17T12:41:05;98544.00;;;31.80
19666;BMP180;9980;51.020;7.772;2022-07-17T12:43:33;98550.00;;;32.00
19666;BMP180;9980;51.020;7.772;2022-07-17T12:46:00;98553.00;;;32.00
19666;BMP180;9980;51.020;7.772;2022-07-17T12:48:36;98540.00;;;32.10
19666;BMP180;9980;51.020;7.772;2022-07-17T12:51:07;98543.00;;;32.20
19666;BMP180;9980;51.020;7.772;2022-07-17T12:53:34;98536.00;;;32.30
19666;BMP180;9980;51.020;7.772;2022-07-17T12:56:03;98543.00;;;32.30
19666;BMP180;9980;51.020;7.772;2022-07-17T12:58:31;98549.00;;;32.40
19666;BMP180;9980;51.020;7.772;2022-07-17T13:01:00;98543.00;;;32.50
19666;BMP180;9980;51.020;7.772;2022-07-17T13:03:27;98519.00;;;32.50
19666;BMP180;9980;51.020;7.772;2022-07-17T13:05:54;98528.00;;;32.50
19666;BMP180;9980;51.020;7.772;2022-07-17T13:08:22;98529.00;;;32.60
19666;BMP180;9980;51.020;7.772;2022-07-17T13:10:48;98540.00;;;32.60
19666;BMP180;9980;51.020;7.772;2022-07-17T13:13:16;98535.00;;;32.70
19666;BMP180;9980;51.020;7.772;2022-07-17T13:15:43;98531.00;;;32.70
19666;BMP180;9980;51.020;7.772;2022-07-17T13:18:10;98534.00;;;32.70
19666;BMP180;9980;51.020;7.772;2022-07-17T13:20:39;98534.00;;;32.80
19666;BMP180;9980;51.020;7.772;2022-07-17T13:23:07;98530.00;;;32.80
19666;BMP180;9980;51.020;7.772;2022-07-17T13:25:35;98536.00;;;32.80
19666;BMP180;9980;51.020;7.772;2022-07-17T13:28:02;98527.00;;;32.80
19666;BMP180;9980;51.020;7.772;2022-07-17T13:30:29;98518.00;;;32.80
19666;BMP180;9980;51.020;7.772;2022-07-17T13:32:56;98518.00;;;32.80
19666;BMP180;9980;51.020;7.772;2022-07-17T13:35:25;98525.00;;;32.80
19666;BMP180;9980;51.020;7.772;2022-07-17T13:37:52;98526.00;;;32.80
19666;BMP180;9980;51.020;7.772;2022-07-17T13:40:20;98519.00;;;32.90
19666;BMP180;9980;51.020;7.772;2022-07-17T13:42:47;98513.00;;;32.90
19666;BMP180;9980;51.020;7.772;2022-07-17T13:45:14;98527.00;;;32.90
19666;BMP180;9980;51.020;7.772;2022-07-17T13:47:41;98515.00;;;32.90
19666;BMP180;9980;51.020;7.772;2022-07-17T13:50:12;98507.00;;;33.00
19666;BMP180;9980;51.020;7.772;2022-07-17T13:52:41;98502.00;;;33.00
19666;BMP180;9980;51.020;7.772;2022-07-17T13:55:08;98509.00;;;33.00
19666;BMP180;9980;51.020;7.772;2022-07-17T13:57:55;98510.00;;;33.00
19666;BMP180;9980;51.020;7.772;2022-07-17T14:00:23;98514.00;;;33.00
19666;BMP180;9980;51.020;7.772;2022-07-17T14:02:50;98505.00;;;33.00
19666;BMP180;9980;51.020;7.772;2022-07-17T14:05:17;98502.00;;;33.00
19666;BMP180;9980;51.020;7.772;2022-07-17T14:07:44;98514.00;;;33.00
19666;BMP180;9980;51.020;7.772;2022-07-17T14:10:11;98499.00;;;33.00
19666;BMP180;9980;51.020;7.772;2022-07-17T14:12:38;98495.00;;;32.90
19666;BMP180;9980;51.020;7.772;2022-07-17T14:15:05;98507.00;;;32.90
19666;BMP180;9980;51.020;7.772;2022-07-17T14:17:36;98500.00;;;32.90
19666;BMP180;9980;51.020;7.772;2022-07-17T14:20:04;98494.00;;;32.90
19666;BMP180;9980;51.020;7.772;2022-07-17T14:22:32;98499.00;;;32.90
19666;BMP180;9980;51.020;7.772;2022-07-17T14:24:59;98491.00;;;33.00
19666;BMP180;9980;51.020;7.772;2022-07-17T14:27:26;98489.00;;;33.00
19666;BMP180;9980;51.020;7.772;2022-07-17T14:29:54;98489.00;;;33.00
19666;BMP180;9980;51.020;7.772;2022-07-17T14:32:21;98486.00;;;33.00
19666;BMP180;9980;51.020;7.772;2022-07-17T14:34:48;98487.00;;;33.00